createdAt,value
2023-09-12T00:01:00.159Z,12.60
2023-09-12T00:03:29.697Z,13.15
2023-09-12T00:05:59.023Z,12.52
2023-09-12T00:08:27.329Z,16.35
2023-09-12T00:11:03.535Z,13.40
2023-09-12T00:13:32.737Z,14.05
2023-09-12T00:16:01.147Z,13.02
2023-09-12T00:18:30.926Z,14.05
2023-09-12T00:21:02.319Z,13.35
2023-09-12T00:23:34.621Z,14.52
2023-09-12T00:26:02.755Z,12.68
2023-09-12T00:28:30.831Z,14.40
2023-09-12T00:31:01.671Z,13.65
2023-09-12T00:33:31.299Z,14.48
2023-09-12T00:35:59.503Z,13.60
2023-09-12T00:38:27.730Z,13.18
2023-09-12T00:40:55.788Z,13.07
2023-09-12T00:43:23.943Z,12.75
2023-09-12T00:45:52.029Z,15.88
2023-09-12T00:48:21.200Z,12.27
2023-09-12T00:50:53.726Z,16.88
2023-09-12T00:53:22.430Z,14.10
2023-09-12T00:55:57.500Z,14.95
2023-09-12T00:58:26.344Z,13.73
2023-09-12T01:00:54.377Z,12.43
2023-09-12T01:03:22.567Z,14.02
2023-09-12T01:05:53.173Z,14.18
2023-09-12T01:08:21.404Z,12.65
2023-09-12T01:10:51.979Z,14.30
2023-09-12T01:13:20.203Z,11.65
2023-09-12T01:15:48.378Z,14.40
2023-09-12T01:18:16.599Z,13.95
2023-09-12T01:21:01.052Z,14.10
2023-09-12T01:23:46.001Z,11.88
2023-09-12T01:26:31.579Z,13.10
2023-09-12T01:29:02.831Z,13.57
2023-09-12T01:31:32.254Z,11.70
2023-09-12T01:34:00.538Z,14.00
2023-09-12T01:36:28.647Z,15.57
2023-09-12T01:39:01.407Z,15.52
2023-09-12T01:41:33.219Z,11.85
2023-09-12T01:44:05.171Z,10.40
2023-09-12T01:46:39.259Z,12.93
2023-09-12T01:49:10.823Z,10.85
2023-09-12T01:51:39.527Z,11.77
2023-09-12T01:54:09.301Z,12.00
2023-09-12T01:56:37.658Z,12.02
2023-09-12T01:59:07.459Z,12.48
2023-09-12T02:01:35.661Z,11.65
2023-09-12T02:04:09.851Z,12.88
2023-09-12T02:06:40.447Z,13.32
2023-09-12T02:09:08.551Z,12.38
2023-09-12T02:11:36.586Z,11.18
2023-09-12T02:14:06.227Z,10.95
2023-09-12T02:16:34.333Z,11.13
2023-09-12T02:19:04.213Z,12.52
2023-09-12T02:21:32.574Z,13.27
2023-09-12T02:24:00.751Z,13.02
2023-09-12T02:26:29.143Z,10.95
2023-09-12T02:28:57.164Z,16.10
2023-09-12T02:31:26.640Z,12.05
2023-09-12T02:33:55.983Z,14.52
2023-09-12T02:36:24.147Z,12.73
2023-09-12T02:38:52.267Z,12.43
2023-09-12T02:41:20.319Z,11.65
2023-09-12T02:43:48.454Z,14.27
2023-09-12T02:46:16.595Z,11.85
2023-09-12T02:48:46.508Z,14.55
2023-09-12T02:51:14.808Z,14.00
2023-09-12T02:53:42.900Z,14.85
2023-09-12T02:56:10.998Z,12.45
2023-09-12T02:58:39.011Z,11.68
2023-09-12T03:01:07.730Z,12.55
2023-09-12T03:03:36.127Z,12.60
2023-09-12T03:06:06.078Z,13.95
2023-09-12T03:08:35.056Z,12.07
2023-09-12T03:11:04.111Z,11.75
2023-09-12T03:13:32.211Z,12.77
2023-09-12T03:16:00.417Z,14.95
2023-09-12T03:18:28.855Z,14.27
2023-09-12T03:20:57.250Z,12.50
2023-09-12T03:23:26.823Z,13.23
2023-09-12T03:25:55.017Z,14.82
2023-09-12T03:28:23.211Z,11.40
2023-09-12T03:30:52.755Z,13.75
2023-09-12T03:33:21.074Z,14.68
2023-09-12T03:35:50.550Z,13.93
2023-09-12T03:38:18.689Z,13.25
2023-09-12T03:40:48.168Z,14.25
2023-09-12T03:43:16.500Z,12.18
2023-09-12T03:45:44.514Z,14.43
2023-09-12T03:48:12.769Z,13.05
2023-09-12T03:50:40.919Z,11.52
2023-09-12T03:53:09.044Z,12.02
2023-09-12T03:55:37.340Z,13.02
2023-09-12T03:58:06.790Z,12.50
2023-09-12T04:00:35.031Z,11.25
2023-09-12T04:03:03.378Z,13.52
2023-09-12T04:05:31.575Z,12.45
2023-09-12T04:07:59.719Z,12.93
2023-09-12T04:10:27.812Z,11.65
2023-09-12T04:12:56.148Z,11.48
2023-09-12T04:15:25.704Z,10.75
2023-09-12T04:17:54.512Z,12.70
2023-09-12T04:20:22.651Z,10.55
2023-09-12T04:22:51.015Z,15.23
2023-09-12T04:25:21.223Z,12.18
2023-09-12T04:27:49.385Z,16.48
2023-09-12T04:30:17.618Z,12.35
2023-09-12T04:32:49.600Z,12.85
2023-09-12T04:35:19.034Z,12.38
2023-09-12T04:37:47.193Z,13.43
2023-09-12T04:40:16.914Z,12.90
2023-09-12T04:42:45.112Z,14.32
2023-09-12T04:45:13.307Z,12.68
2023-09-12T04:47:41.475Z,17.38
2023-09-12T04:50:12.873Z,14.70
2023-09-12T04:52:40.951Z,13.82
2023-09-12T04:55:09.710Z,13.85
2023-09-12T04:57:39.942Z,16.30
2023-09-12T05:00:12.238Z,14.00
2023-09-12T05:02:40.568Z,12.70
2023-09-12T05:05:10.823Z,13.52
2023-09-12T05:07:40.747Z,17.52
2023-09-12T05:10:09.596Z,13.65
2023-09-12T05:12:45.394Z,15.52
2023-09-12T05:15:13.485Z,12.98
2023-09-12T05:17:41.453Z,18.25
2023-09-12T05:20:12.816Z,16.73
2023-09-12T05:22:40.854Z,13.30
2023-09-12T05:25:11.930Z,16.98
2023-09-12T05:27:43.184Z,21.02
2023-09-12T05:30:11.997Z,14.82
2023-09-12T05:32:40.305Z,13.13
2023-09-12T05:35:20.729Z,14.70
2023-09-12T05:37:50.221Z,14.43
2023-09-12T05:40:18.739Z,13.80
2023-09-12T05:42:47.110Z,15.18
2023-09-12T05:45:15.415Z,15.02
2023-09-12T05:47:43.582Z,15.30
2023-09-12T05:50:13.639Z,15.60
2023-09-12T05:52:42.935Z,13.98
2023-09-12T05:55:12.739Z,14.60
2023-09-12T05:57:41.087Z,13.55
2023-09-12T06:00:12.266Z,14.75
2023-09-12T06:02:40.546Z,14.25
2023-09-12T06:05:09.816Z,15.23
2023-09-12T06:07:42.057Z,15.63
2023-09-12T06:10:11.486Z,13.52
2023-09-12T06:12:39.821Z,13.98
2023-09-12T06:15:09.008Z,15.27
2023-09-12T06:17:37.369Z,16.92
2023-09-12T06:20:07.738Z,14.57
2023-09-12T06:22:37.108Z,13.32
2023-09-12T06:25:10.386Z,16.27
2023-09-12T06:27:38.676Z,17.77
2023-09-12T06:30:08.346Z,12.88
2023-09-12T06:32:36.639Z,14.57
2023-09-12T06:35:05.051Z,14.07
2023-09-12T06:37:33.140Z,14.95
2023-09-12T06:40:01.222Z,13.40
2023-09-12T06:42:30.833Z,12.43
2023-09-12T06:44:59.252Z,13.85
2023-09-12T06:47:29.397Z,13.25
2023-09-12T06:49:57.866Z,14.18
2023-09-12T06:52:26.199Z,12.80
2023-09-12T06:54:54.433Z,14.20
2023-09-12T06:57:22.484Z,13.20
2023-09-12T06:59:52.174Z,11.65
2023-09-12T07:02:20.472Z,13.95
2023-09-12T07:04:48.845Z,11.52
2023-09-12T07:07:17.133Z,13.38
2023-09-12T07:09:45.497Z,13.05
2023-09-12T07:12:13.769Z,13.75
2023-09-12T07:14:41.936Z,12.10
2023-09-12T07:17:11.901Z,13.80
2023-09-12T07:19:40.673Z,14.05
2023-09-12T07:22:09.529Z,12.30
2023-09-12T07:24:37.618Z,14.13
2023-09-12T07:27:06.178Z,14.88
2023-09-12T07:29:34.327Z,12.18
2023-09-12T07:32:02.506Z,15.38
2023-09-12T07:34:32.076Z,14.73
2023-09-12T07:37:00.353Z,13.18
2023-09-12T07:39:31.590Z,13.95
2023-09-12T07:41:59.855Z,10.63
2023-09-12T07:44:30.941Z,11.75
2023-09-12T07:46:59.178Z,14.45
2023-09-12T07:49:28.218Z,14.70
2023-09-12T07:51:58.630Z,13.63
2023-09-12T07:54:26.935Z,13.93
2023-09-12T07:56:57.933Z,14.23
2023-09-12T07:59:26.815Z,13.43
2023-09-12T08:01:55.156Z,15.18
2023-09-12T08:04:23.645Z,16.42
2023-09-12T08:06:57.886Z,15.82
2023-09-12T08:09:53.661Z,15.68
2023-09-12T08:12:22.744Z,16.50
2023-09-12T08:14:51.168Z,15.73
2023-09-12T08:17:19.580Z,15.65
2023-09-12T08:19:47.904Z,14.52
2023-09-12T08:22:16.249Z,19.65
2023-09-12T08:24:44.568Z,15.75
2023-09-12T08:27:15.089Z,17.52
2023-09-12T08:29:45.927Z,17.05
2023-09-12T08:32:14.161Z,18.83
2023-09-12T08:34:45.392Z,19.35
2023-09-12T08:37:13.547Z,20.80
2023-09-12T08:39:46.496Z,18.38
2023-09-12T08:42:17.665Z,19.55
2023-09-12T08:44:46.406Z,16.27
2023-09-12T08:47:16.535Z,18.30
2023-09-12T08:49:45.231Z,16.75
2023-09-12T08:52:13.342Z,18.52
2023-09-12T08:54:41.458Z,16.73
2023-09-12T08:57:14.347Z,15.27
2023-09-12T08:59:49.558Z,17.08
2023-09-12T09:02:18.801Z,19.60
2023-09-12T09:04:50.834Z,16.60
2023-09-12T09:07:22.445Z,16.02
2023-09-12T09:09:53.191Z,16.30
2023-09-12T09:12:22.035Z,20.50
2023-09-12T09:14:51.771Z,15.73
2023-09-12T09:17:34.523Z,18.25
2023-09-12T09:20:07.186Z,15.68
2023-09-12T09:22:35.305Z,18.10
2023-09-12T09:25:13.965Z,17.15
2023-09-12T09:27:52.511Z,22.33
2023-09-12T09:30:41.607Z,17.77
2023-09-12T09:33:10.596Z,18.40
2023-09-12T09:35:39.855Z,16.95
2023-09-12T09:38:11.607Z,16.42
2023-09-12T09:40:48.563Z,18.50
2023-09-12T09:43:23.695Z,19.65
2023-09-12T09:45:53.681Z,17.73
2023-09-12T09:48:22.689Z,18.02
2023-09-12T09:50:53.012Z,20.65
2023-09-12T09:53:24.271Z,20.45
2023-09-12T09:55:52.504Z,16.90
2023-09-12T09:58:20.593Z,18.58
2023-09-12T10:00:55.255Z,16.55
2023-09-12T10:03:26.461Z,18.05
2023-09-12T10:05:59.419Z,15.50
2023-09-12T10:08:29.322Z,21.33
2023-09-12T10:10:57.496Z,16.10
2023-09-12T10:13:28.193Z,16.73
2023-09-12T10:15:59.643Z,16.85
2023-09-12T10:18:31.506Z,19.73
2023-09-12T10:21:07.341Z,18.02
2023-09-12T10:23:43.220Z,18.85
2023-09-12T10:26:19.029Z,15.40
2023-09-12T10:28:52.488Z,20.10
2023-09-12T10:31:22.754Z,20.90
2023-09-12T10:33:56.173Z,16.55
2023-09-12T10:36:28.327Z,16.65
2023-09-12T10:38:57.856Z,17.88
2023-09-12T10:41:27.109Z,21.55
2023-09-12T10:43:57.677Z,15.30
2023-09-12T10:46:26.087Z,17.50
2023-09-12T10:48:58.212Z,17.45
2023-09-12T10:51:26.710Z,19.85
2023-09-12T10:53:55.285Z,17.02
2023-09-12T10:56:25.645Z,17.98
2023-09-12T10:59:13.923Z,16.20
2023-09-12T11:01:44.197Z,19.08
2023-09-12T11:04:38.827Z,18.10
2023-09-12T11:07:35.113Z,18.75
2023-09-12T11:10:21.070Z,15.40
2023-09-12T11:12:51.162Z,19.02
2023-09-12T11:15:19.990Z,20.35
2023-09-12T11:17:49.084Z,20.25
2023-09-12T11:20:20.202Z,18.42
2023-09-12T11:22:49.974Z,16.20
2023-09-12T11:25:22.915Z,16.10
2023-09-12T11:28:08.596Z,22.05
2023-09-12T11:30:57.084Z,19.65
2023-09-12T11:33:26.821Z,20.35
2023-09-12T11:35:59.231Z,20.10
2023-09-12T11:38:34.404Z,21.63
2023-09-12T11:41:04.682Z,22.60
2023-09-12T11:43:33.894Z,22.40
2023-09-12T11:46:04.196Z,15.88
2023-09-12T11:48:33.022Z,16.35
2023-09-12T11:51:04.876Z,16.60
2023-09-12T11:53:36.692Z,19.10
2023-09-12T11:56:05.432Z,16.30
2023-09-12T11:58:33.768Z,21.17
2023-09-12T12:01:02.084Z,17.95
2023-09-12T12:03:30.677Z,18.90
2023-09-12T12:05:59.359Z,18.30
2023-09-12T12:08:32.756Z,19.15
2023-09-12T12:11:02.207Z,22.05
2023-09-12T12:13:31.187Z,18.45
2023-09-12T12:15:59.743Z,20.05
2023-09-12T12:18:30.735Z,20.90
2023-09-12T12:20:59.167Z,18.65
2023-09-12T12:23:28.745Z,17.73
2023-09-12T12:25:56.857Z,19.80
2023-09-12T12:28:26.500Z,20.80
2023-09-12T12:30:56.762Z,18.90
2023-09-12T12:34:43.424Z,17.98
2023-09-12T12:36:16.979Z,22.30
2023-09-12T12:39:53.964Z,22.35
2023-09-12T12:41:47.860Z,23.35
2023-09-12T12:44:19.374Z,22.20
2023-09-12T12:46:51.395Z,23.67
2023-09-12T12:49:21.784Z,21.60
2023-09-12T12:51:52.114Z,19.17
2023-09-12T12:54:25.415Z,22.92
2023-09-12T12:56:58.173Z,23.17
2023-09-12T12:59:26.560Z,22.65
2023-09-12T13:01:54.759Z,22.65
2023-09-12T13:04:23.730Z,23.98
2023-09-12T13:06:51.906Z,25.50
2023-09-12T13:09:23.657Z,25.45
2023-09-12T13:11:57.649Z,25.85
2023-09-12T13:14:31.930Z,23.38
2023-09-12T13:17:04.234Z,23.10
2023-09-12T13:19:37.231Z,23.45
2023-09-12T13:22:05.948Z,21.08
2023-09-12T13:24:36.391Z,23.13
2023-09-12T13:27:04.865Z,23.08
2023-09-12T13:29:33.023Z,23.48
2023-09-12T13:32:01.331Z,23.90
2023-09-12T13:34:29.606Z,26.20
2023-09-12T13:37:11.439Z,28.83
2023-09-12T13:39:41.599Z,32.13
2023-09-12T13:42:11.130Z,23.77
2023-09-12T13:44:41.913Z,29.83
2023-09-12T13:47:10.206Z,26.05
2023-09-12T13:49:38.628Z,28.10
2023-09-12T13:52:07.548Z,31.40
2023-09-12T13:54:35.787Z,27.27
2023-09-12T13:57:05.705Z,24.13
2023-09-12T13:59:44.018Z,25.25
2023-09-12T14:02:14.392Z,30.17
2023-09-12T14:04:43.727Z,30.55
2023-09-12T14:07:13.425Z,29.42
2023-09-12T14:09:43.356Z,26.50
2023-09-12T14:12:24.844Z,29.67
2023-09-12T14:15:05.488Z,25.50
2023-09-12T14:17:50.249Z,28.67
2023-09-12T14:20:24.886Z,28.02
2023-09-12T14:22:53.936Z,31.75
2023-09-12T14:25:28.207Z,29.80
2023-09-12T14:27:59.453Z,28.45
2023-09-12T14:30:36.424Z,32.13
2023-09-12T14:33:05.300Z,31.48
2023-09-12T14:35:40.625Z,32.55
2023-09-12T14:38:08.816Z,33.45
2023-09-12T14:40:37.138Z,30.85
2023-09-12T14:43:11.505Z,33.90
2023-09-12T14:45:40.958Z,35.97
2023-09-12T14:48:10.812Z,31.35
2023-09-12T14:50:42.889Z,39.08
2023-09-12T14:53:13.078Z,36.00
2023-09-12T14:55:41.605Z,40.30
2023-09-12T14:58:18.189Z,37.95
2023-09-12T15:00:46.691Z,36.28
2023-09-12T15:03:14.959Z,35.15
2023-09-12T15:05:43.378Z,35.08
2023-09-12T15:08:12.068Z,37.50
2023-09-12T15:10:42.203Z,33.40
2023-09-12T15:13:12.442Z,29.63
2023-09-12T15:15:40.630Z,30.35
2023-09-12T15:18:09.018Z,32.28
2023-09-12T15:20:37.251Z,32.75
2023-09-12T15:23:06.655Z,32.70
2023-09-12T15:25:34.651Z,27.25
2023-09-12T15:28:02.878Z,27.70
2023-09-12T15:30:32.354Z,30.25
2023-09-12T15:33:00.596Z,32.25
2023-09-12T15:35:28.827Z,30.45
2023-09-12T15:37:57.035Z,30.67
2023-09-12T15:40:25.138Z,31.20
2023-09-12T15:45:51.862Z,30.95
2023-09-12T15:48:20.344Z,29.13
2023-09-12T15:50:48.572Z,29.85
2023-09-12T15:53:17.277Z,30.05
2023-09-12T15:55:45.528Z,31.63
2023-09-12T15:58:16.314Z,31.48
2023-09-12T16:00:46.557Z,33.08
2023-09-12T16:03:16.327Z,28.83
2023-09-12T16:05:45.902Z,29.33
2023-09-12T16:08:17.075Z,29.63
2023-09-12T16:10:45.161Z,30.35
2023-09-12T16:13:15.361Z,33.25
2023-09-12T16:15:43.647Z,32.38
2023-09-12T16:18:12.039Z,32.22
2023-09-12T16:20:41.702Z,26.23
2023-09-12T16:23:09.846Z,27.98
2023-09-12T16:25:38.108Z,29.95
2023-09-12T16:28:06.856Z,27.10
2023-09-12T16:30:38.145Z,29.10
2023-09-12T16:33:06.832Z,30.10
2023-09-12T16:35:35.032Z,28.90
2023-09-12T16:38:04.808Z,33.22
2023-09-12T16:40:33.565Z,26.17
2023-09-12T16:43:02.574Z,35.25
2023-09-12T16:45:31.300Z,31.30
2023-09-12T16:47:59.442Z,27.48
2023-09-12T16:50:28.189Z,30.02
2023-09-12T16:52:56.241Z,32.25
2023-09-12T16:55:27.077Z,27.02
2023-09-12T16:57:56.983Z,29.40
2023-09-12T17:00:25.375Z,26.73
2023-09-12T17:02:53.495Z,27.30
2023-09-12T17:05:24.310Z,27.33
2023-09-12T17:07:52.652Z,27.42
2023-09-12T17:10:21.631Z,27.48
2023-09-12T17:12:51.101Z,28.58
2023-09-12T17:15:19.849Z,26.05
2023-09-12T17:17:48.078Z,31.95
2023-09-12T17:20:16.288Z,26.67
2023-09-12T17:22:44.518Z,23.65
2023-09-12T17:25:13.841Z,24.67
2023-09-12T17:27:42.245Z,32.53
2023-09-12T17:30:12.638Z,25.88
2023-09-12T17:32:40.869Z,23.17
2023-09-12T17:35:10.135Z,22.92
2023-09-12T17:37:38.227Z,24.88
2023-09-12T17:40:10.265Z,21.70
2023-09-12T17:42:38.653Z,19.70
2023-09-12T17:45:08.328Z,20.42
2023-09-12T17:47:37.940Z,21.40
2023-09-12T17:50:07.036Z,21.13
2023-09-12T17:52:35.047Z,21.42
2023-09-12T17:55:03.008Z,22.75
2023-09-12T17:57:31.144Z,20.67
2023-09-12T17:59:59.351Z,20.45
2023-09-12T18:02:27.474Z,20.85
2023-09-12T18:04:57.047Z,20.63
2023-09-12T18:07:25.787Z,17.52
2023-09-12T18:09:53.953Z,21.45
2023-09-12T18:12:22.972Z,17.42
2023-09-12T18:14:51.082Z,21.75
2023-09-12T18:17:19.225Z,20.05
2023-09-12T18:19:47.248Z,19.77
2023-09-12T18:22:17.981Z,20.27
2023-09-12T18:24:46.111Z,18.40
2023-09-12T18:27:14.420Z,19.45
2023-09-12T18:29:44.902Z,18.05
2023-09-12T18:32:13.083Z,17.38
2023-09-12T18:34:41.159Z,19.45
2023-09-12T18:37:13.469Z,19.55
2023-09-12T18:39:44.456Z,18.10
2023-09-12T18:42:12.819Z,18.15
2023-09-12T18:44:40.889Z,19.65
2023-09-12T18:47:09.341Z,24.77
2023-09-12T18:49:37.574Z,18.58
2023-09-12T18:52:08.220Z,19.23
2023-09-12T18:54:37.220Z,14.75
2023-09-12T18:57:12.883Z,18.65
2023-09-12T18:59:41.092Z,15.10
2023-09-12T19:02:10.154Z,17.30
2023-09-12T19:04:38.933Z,14.88
2023-09-12T19:07:07.552Z,19.77
2023-09-12T19:09:35.738Z,17.35
2023-09-12T19:12:05.088Z,19.83
2023-09-12T19:14:34.780Z,15.10
2023-09-12T19:17:06.746Z,16.88
2023-09-12T19:19:34.928Z,14.57
2023-09-12T19:22:03.527Z,17.20
2023-09-12T19:24:31.539Z,14.27
2023-09-12T19:26:59.614Z,17.83
2023-09-12T19:29:27.674Z,15.20
2023-09-12T19:31:57.487Z,12.45
2023-09-12T19:34:25.577Z,15.00
2023-09-12T19:36:54.692Z,15.82
2023-09-12T19:39:22.740Z,18.90
2023-09-12T19:41:50.819Z,15.10
2023-09-12T19:44:19.292Z,16.40
2023-09-12T19:46:47.534Z,15.23
2023-09-12T19:49:17.052Z,19.00
2023-09-12T19:51:46.696Z,15.63
2023-09-12T19:54:15.056Z,16.10
2023-09-12T19:56:43.300Z,13.07
2023-09-12T19:59:11.688Z,16.05
2023-09-12T20:01:39.885Z,14.32
2023-09-12T20:04:08.231Z,16.08
2023-09-12T20:06:38.010Z,15.63
2023-09-12T20:09:11.791Z,17.13
2023-09-12T20:11:39.917Z,13.25
2023-09-12T20:14:08.091Z,16.73
2023-09-12T20:16:36.111Z,11.75
2023-09-12T20:19:06.729Z,15.55
2023-09-12T20:21:35.196Z,17.17
2023-09-12T20:24:07.398Z,17.17
2023-09-12T20:26:35.640Z,15.13
2023-09-12T20:29:07.243Z,14.45
2023-09-12T20:31:36.424Z,15.60
2023-09-12T20:34:05.079Z,13.77
2023-09-12T20:36:35.151Z,14.70
2023-09-12T20:39:29.982Z,14.60
2023-09-12T20:41:59.111Z,15.30
2023-09-12T20:44:27.943Z,14.25
2023-09-12T20:46:57.121Z,14.43
2023-09-12T20:49:25.394Z,13.40
2023-09-12T20:51:56.174Z,14.43
2023-09-12T20:54:24.510Z,13.90
2023-09-12T20:56:54.173Z,14.40
2023-09-12T20:59:22.476Z,15.52
2023-09-12T21:01:50.817Z,13.75
2023-09-12T21:04:19.377Z,17.83
2023-09-12T21:06:47.917Z,16.40
2023-09-12T21:09:16.674Z,14.30
2023-09-12T21:11:45.070Z,12.82
2023-09-12T21:14:15.094Z,16.90
2023-09-12T21:16:45.478Z,14.30
2023-09-12T21:19:13.757Z,11.82
2023-09-12T21:21:42.250Z,11.48
2023-09-12T21:24:10.661Z,12.60
2023-09-12T21:26:38.834Z,12.43
2023-09-12T21:29:07.291Z,13.05
2023-09-12T21:31:37.470Z,14.20
2023-09-12T21:34:05.973Z,16.73
2023-09-12T21:36:34.385Z,13.15
2023-09-12T21:39:04.723Z,13.18
2023-09-12T21:41:34.115Z,11.13
2023-09-12T21:44:02.647Z,10.73
2023-09-12T21:46:33.607Z,13.13
2023-09-12T21:49:04.923Z,14.32
2023-09-12T21:51:33.122Z,13.20
2023-09-12T21:54:01.288Z,11.27
2023-09-12T21:56:29.561Z,13.50
2023-09-12T21:58:57.660Z,14.68
2023-09-12T22:01:26.507Z,16.77
2023-09-12T22:03:55.000Z,13.77
2023-09-12T22:06:26.978Z,15.07
2023-09-12T22:08:56.095Z,12.55
2023-09-12T22:11:25.768Z,17.02
2023-09-12T22:13:53.934Z,13.27
2023-09-12T22:16:24.985Z,14.55
2023-09-12T22:18:53.302Z,21.27
2023-09-12T22:21:21.674Z,13.00
2023-09-12T22:23:53.886Z,14.32
2023-09-12T22:26:22.214Z,15.85
2023-09-12T22:28:50.759Z,14.07
2023-09-12T22:31:19.217Z,16.80
2023-09-12T22:33:55.698Z,12.48
2023-09-12T22:36:24.010Z,17.58
2023-09-12T22:38:55.578Z,11.07
2023-09-12T22:41:26.217Z,16.67
2023-09-12T22:43:55.332Z,9.75
2023-09-12T22:46:23.677Z,13.07
2023-09-12T22:48:53.653Z,12.65
2023-09-12T22:51:21.953Z,13.88
2023-09-12T22:53:50.652Z,13.63
2023-09-12T22:56:20.498Z,13.07
2023-09-12T22:58:49.240Z,12.98
2023-09-12T23:01:17.672Z,11.43
2023-09-12T23:03:48.276Z,12.00
2023-09-12T23:06:20.317Z,14.82
2023-09-12T23:08:48.780Z,13.20
2023-09-12T23:11:17.057Z,14.68
2023-09-12T23:13:46.947Z,11.20
2023-09-12T23:16:15.291Z,11.63
2023-09-12T23:18:44.051Z,12.77
2023-09-12T23:21:14.621Z,13.68
2023-09-12T23:23:43.083Z,12.27
2023-09-12T23:26:11.370Z,14.25
2023-09-12T23:28:39.545Z,21.05
2023-09-12T23:31:10.364Z,12.23
2023-09-12T23:33:38.626Z,10.40
2023-09-12T23:36:11.315Z,11.10
2023-09-12T23:38:39.682Z,10.38
2023-09-12T23:41:07.900Z,12.40
2023-09-12T23:43:36.334Z,11.35
2023-09-12T23:46:04.656Z,11.00
2023-09-12T23:48:34.470Z,13.80
2023-09-12T23:51:02.658Z,12.15
2023-09-12T23:53:30.971Z,16.58
2023-09-12T23:56:02.854Z,13.68
2023-09-12T23:58:31.046Z,13.77
